Terminal Aerodrome Forecast
Issued by NWS Cleveland, OH

Home | Current Version | Previous Version | Text Only | Print | Product List | Glossary Off
Versions: 1 2 3 4 5 6 7 8 9 10 11 12 13 14 15 16 17 18 19

000
FTUS41 KCLE 191955 AAD
TAFMFD
TAF AMD
KMFD 191955Z 1920/2018 18006KT P6SM VCSH SCT028 BKN080
      TEMPO 1920/1924 BKN028
     FM200000 VRB03KT P6SM SCT025 BKN070
     FM200900 00000KT 3SM BR SCT015 BKN070
      TEMPO 2011/2014 1SM BR SCT008 OVC015
     FM201400 VRB03KT P6SM SCT015 BKN025
     FM201700 23005KT P6SM SCT015 BKN035=

USA.gov is the U.S. government's official web portal to all federal, state and local government web resources and services.